sensor_id;sensor_type;location;lat;lon;timestamp;temperature;humidity
19085;DHT22;9675;51.538;6.728;2022-09-09T00:02:19;19.60;99.90
19085;DHT22;9675;51.538;6.728;2022-09-09T00:04:54;19.60;99.90
19085;DHT22;9675;51.538;6.728;2022-09-09T00:07:37;19.60;99.90
19085;DHT22;9675;51.538;6.728;2022-09-09T00:10:20;19.50;99.90
19085;DHT22;9675;51.538;6.728;2022-09-09T00:12:58;19.50;99.90
19085;DHT22;9675;51.538;6.728;2022-09-09T00:15:37;19.50;99.90
19085;DHT22;9675;51.538;6.728;2022-09-09T00:18:17;19.50;99.90
19085;DHT22;9675;51.538;6.728;2022-09-09T00:20:56;19.50;99.90
19085;DHT22;9675;51.538;6.728;2022-09-09T00:23:30;19.40;99.90
19085;DHT22;9675;51.538;6.728;2022-09-09T00:26:04;19.40;99.90
19085;DHT22;9675;51.538;6.728;2022-09-09T00:28:39;19.40;99.90
19085;DHT22;9675;51.538;6.728;2022-09-09T00:31:17;19.30;99.90
19085;DHT22;9675;51.538;6.728;2022-09-09T00:33:49;19.30;99.90
19085;DHT22;9675;51.538;6.728;2022-09-09T00:36:21;19.20;99.90
19085;DHT22;9675;51.538;6.728;2022-09-09T00:38:55;19.20;99.90
19085;DHT22;9675;51.538;6.728;2022-09-09T00:41:35;19.20;99.90
19085;DHT22;9675;51.538;6.728;2022-09-09T00:44:25;19.10;99.90
19085;DHT22;9675;51.538;6.728;2022-09-09T00:47:12;19.10;99.90
19085;DHT22;9675;51.538;6.728;2022-09-09T00:49:55;19.10;99.90
19085;DHT22;9675;51.538;6.728;2022-09-09T00:52:34;19.10;99.90
19085;DHT22;9675;51.538;6.728;2022-09-09T00:55:12;19.00;99.90
19085;DHT22;9675;51.538;6.728;2022-09-09T00:57:44;19.10;99.90
19085;DHT22;9675;51.538;6.728;2022-09-09T01:00:19;19.00;99.90
19085;DHT22;9675;51.538;6.728;2022-09-09T01:03:02;19.00;99.90
19085;DHT22;9675;51.538;6.728;2022-09-09T01:05:47;19.00;99.90
19085;DHT22;9675;51.538;6.728;2022-09-09T01:08:33;19.00;99.90
19085;DHT22;9675;51.538;6.728;2022-09-09T01:11:14;18.90;99.90
19085;DHT22;9675;51.538;6.728;2022-09-09T01:13:52;18.80;99.90
19085;DHT22;9675;51.538;6.728;2022-09-09T01:16:24;18.80;99.90
19085;DHT22;9675;51.538;6.728;2022-09-09T01:18:54;18.80;99.90
19085;DHT22;9675;51.538;6.728;2022-09-09T01:21:29;18.80;99.90
19085;DHT22;9675;51.538;6.728;2022-09-09T01:24:18;18.80;99.90
19085;DHT22;9675;51.538;6.728;2022-09-09T01:26:51;18.80;99.90
19085;DHT22;9675;51.538;6.728;2022-09-09T01:29:21;18.70;99.90
19085;DHT22;9675;51.538;6.728;2022-09-09T01:31:54;18.70;99.90
19085;DHT22;9675;51.538;6.728;2022-09-09T01:34:23;18.70;99.90
19085;DHT22;9675;51.538;6.728;2022-09-09T01:36:57;18.70;99.90
19085;DHT22;9675;51.538;6.728;2022-09-09T01:39:30;18.70;99.90
19085;DHT22;9675;51.538;6.728;2022-09-09T01:41:59;18.60;99.90
19085;DHT22;9675;51.538;6.728;2022-09-09T01:44:27;18.60;99.90
19085;DHT22;9675;51.538;6.728;2022-09-09T01:46:56;18.60;99.90
19085;DHT22;9675;51.538;6.728;2022-09-09T01:49:24;18.60;99.90
19085;DHT22;9675;51.538;6.728;2022-09-09T01:51:53;18.60;99.90
19085;DHT22;9675;51.538;6.728;2022-09-09T01:54:24;18.60;99.90
19085;DHT22;9675;51.538;6.728;2022-09-09T01:57:02;18.60;99.90
19085;DHT22;9675;51.538;6.728;2022-09-09T01:59:48;18.60;99.90
19085;DHT22;9675;51.538;6.728;2022-09-09T02:02:27;18.50;99.90
19085;DHT22;9675;51.538;6.728;2022-09-09T02:05:10;18.50;99.90
19085;DHT22;9675;51.538;6.728;2022-09-09T02:07:47;18.50;99.90
19085;DHT22;9675;51.538;6.728;2022-09-09T02:10:20;18.50;99.90
19085;DHT22;9675;51.538;6.728;2022-09-09T02:12:55;18.50;99.90
19085;DHT22;9675;51.538;6.728;2022-09-09T02:15:32;18.50;99.90
19085;DHT22;9675;51.538;6.728;2022-09-09T02:18:07;18.40;99.90
19085;DHT22;9675;51.538;6.728;2022-09-09T02:20:38;18.40;99.90
19085;DHT22;9675;51.538;6.728;2022-09-09T02:23:07;18.40;99.90
19085;DHT22;9675;51.538;6.728;2022-09-09T02:25:36;18.30;99.90
19085;DHT22;9675;51.538;6.728;2022-09-09T02:28:08;18.30;99.90
19085;DHT22;9675;51.538;6.728;2022-09-09T02:30:38;18.30;99.90
19085;DHT22;9675;51.538;6.728;2022-09-09T02:33:09;18.30;99.90
19085;DHT22;9675;51.538;6.728;2022-09-09T02:35:40;18.30;99.90
19085;DHT22;9675;51.538;6.728;2022-09-09T02:38:13;18.30;99.90
19085;DHT22;9675;51.538;6.728;2022-09-09T02:40:43;18.30;99.90
19085;DHT22;9675;51.538;6.728;2022-09-09T02:43:14;18.40;99.90
19085;DHT22;9675;51.538;6.728;2022-09-09T02:45:44;18.40;99.90
19085;DHT22;9675;51.538;6.728;2022-09-09T02:48:27;18.40;99.90
19085;DHT22;9675;51.538;6.728;2022-09-09T02:51:06;18.40;99.90
19085;DHT22;9675;51.538;6.728;2022-09-09T02:53:53;18.40;99.90
19085;DHT22;9675;51.538;6.728;2022-09-09T02:56:31;18.40;99.90
19085;DHT22;9675;51.538;6.728;2022-09-09T02:59:07;18.40;99.90
19085;DHT22;9675;51.538;6.728;2022-09-09T03:01:35;18.40;99.90
19085;DHT22;9675;51.538;6.728;2022-09-09T03:04:05;18.40;99.90
19085;DHT22;9675;51.538;6.728;2022-09-09T03:06:32;18.30;99.90
19085;DHT22;9675;51.538;6.728;2022-09-09T03:09:01;18.40;99.90
19085;DHT22;9675;51.538;6.728;2022-09-09T03:11:28;18.40;99.90
19085;DHT22;9675;51.538;6.728;2022-09-09T03:13:55;18.40;99.90
19085;DHT22;9675;51.538;6.728;2022-09-09T03:16:24;18.30;99.90
19085;DHT22;9675;51.538;6.728;2022-09-09T03:18:51;18.30;99.90
19085;DHT22;9675;51.538;6.728;2022-09-09T03:21:18;18.20;99.90
19085;DHT22;9675;51.538;6.728;2022-09-09T03:23:46;18.20;99.90
19085;DHT22;9675;51.538;6.728;2022-09-09T03:26:13;18.20;99.90
19085;DHT22;9675;51.538;6.728;2022-09-09T03:28:41;18.20;99.90
19085;DHT22;9675;51.538;6.728;2022-09-09T03:31:10;18.10;99.90
19085;DHT22;9675;51.538;6.728;2022-09-09T03:33:39;18.10;99.90
19085;DHT22;9675;51.538;6.728;2022-09-09T03:36:08;18.10;99.90
19085;DHT22;9675;51.538;6.728;2022-09-09T03:38:36;18.10;99.90
19085;DHT22;9675;51.538;6.728;2022-09-09T03:41:03;18.10;99.90
19085;DHT22;9675;51.538;6.728;2022-09-09T03:43:33;18.10;99.90
19085;DHT22;9675;51.538;6.728;2022-09-09T03:46:02;18.00;99.90
19085;DHT22;9675;51.538;6.728;2022-09-09T03:48:29;18.10;99.90
19085;DHT22;9675;51.538;6.728;2022-09-09T03:50:57;18.00;99.90
19085;DHT22;9675;51.538;6.728;2022-09-09T03:53:27;18.00;99.90
19085;DHT22;9675;51.538;6.728;2022-09-09T03:55:56;18.00;99.90
19085;DHT22;9675;51.538;6.728;2022-09-09T03:58:26;18.00;99.90
19085;DHT22;9675;51.538;6.728;2022-09-09T04:00:55;18.00;99.90
19085;DHT22;9675;51.538;6.728;2022-09-09T04:03:23;18.00;99.90
19085;DHT22;9675;51.538;6.728;2022-09-09T04:05:51;18.10;99.90
19085;DHT22;9675;51.538;6.728;2022-09-09T04:08:20;18.00;99.90
19085;DHT22;9675;51.538;6.728;2022-09-09T04:10:48;18.00;99.90
19085;DHT22;9675;51.538;6.728;2022-09-09T04:13:17;18.00;99.90
19085;DHT22;9675;51.538;6.728;2022-09-09T04:15:50;18.00;99.90
19085;DHT22;9675;51.538;6.728;2022-09-09T04:18:19;18.00;99.90
19085;DHT22;9675;51.538;6.728;2022-09-09T04:20:46;18.00;99.90
19085;DHT22;9675;51.538;6.728;2022-09-09T04:23:14;18.00;99.90
19085;DHT22;9675;51.538;6.728;2022-09-09T04:25:45;18.00;99.90
19085;DHT22;9675;51.538;6.728;2022-09-09T04:28:13;18.00;99.90
19085;DHT22;9675;51.538;6.728;2022-09-09T04:30:40;18.00;99.90
19085;DHT22;9675;51.538;6.728;2022-09-09T04:33:08;18.00;99.90
19085;DHT22;9675;51.538;6.728;2022-09-09T04:35:36;18.00;99.90
19085;DHT22;9675;51.538;6.728;2022-09-09T04:38:04;18.00;99.90
19085;DHT22;9675;51.538;6.728;2022-09-09T04:40:33;18.00;99.90
19085;DHT22;9675;51.538;6.728;2022-09-09T04:43:02;18.00;99.90
19085;DHT22;9675;51.538;6.728;2022-09-09T04:45:30;18.00;99.90
19085;DHT22;9675;51.538;6.728;2022-09-09T04:47:58;18.00;99.90
19085;DHT22;9675;51.538;6.728;2022-09-09T04:50:25;18.00;99.90
19085;DHT22;9675;51.538;6.728;2022-09-09T04:52:53;18.00;99.90
19085;DHT22;9675;51.538;6.728;2022-09-09T04:55:20;17.90;99.90
19085;DHT22;9675;51.538;6.728;2022-09-09T04:57:47;18.00;99.90
19085;DHT22;9675;51.538;6.728;2022-09-09T05:00:16;18.00;99.90
19085;DHT22;9675;51.538;6.728;2022-09-09T05:02:44;17.90;99.90
19085;DHT22;9675;51.538;6.728;2022-09-09T05:05:13;17.90;99.90
19085;DHT22;9675;51.538;6.728;2022-09-09T05:07:40;17.90;99.90
19085;DHT22;9675;51.538;6.728;2022-09-09T05:10:08;18.00;99.90
19085;DHT22;9675;51.538;6.728;2022-09-09T05:12:36;17.90;99.90
19085;DHT22;9675;51.538;6.728;2022-09-09T05:15:03;18.00;99.90
19085;DHT22;9675;51.538;6.728;2022-09-09T05:17:33;17.90;99.90
19085;DHT22;9675;51.538;6.728;2022-09-09T05:20:00;17.90;99.90
19085;DHT22;9675;51.538;6.728;2022-09-09T05:22:29;17.90;99.90
19085;DHT22;9675;51.538;6.728;2022-09-09T05:24:56;17.90;99.90
19085;DHT22;9675;51.538;6.728;2022-09-09T05:27:24;17.90;99.90
19085;DHT22;9675;51.538;6.728;2022-09-09T05:29:51;17.90;99.90
19085;DHT22;9675;51.538;6.728;2022-09-09T05:32:18;17.90;99.90
19085;DHT22;9675;51.538;6.728;2022-09-09T05:34:46;17.90;99.90
19085;DHT22;9675;51.538;6.728;2022-09-09T05:37:13;17.90;99.90
19085;DHT22;9675;51.538;6.728;2022-09-09T05:39:42;17.90;99.90
19085;DHT22;9675;51.538;6.728;2022-09-09T05:42:09;17.90;99.90
19085;DHT22;9675;51.538;6.728;2022-09-09T05:44:36;17.90;99.90
19085;DHT22;9675;51.538;6.728;2022-09-09T05:47:03;17.90;99.90
19085;DHT22;9675;51.538;6.728;2022-09-09T05:49:31;17.90;99.90
19085;DHT22;9675;51.538;6.728;2022-09-09T05:51:59;17.90;99.90
19085;DHT22;9675;51.538;6.728;2022-09-09T05:54:27;17.90;99.90
19085;DHT22;9675;51.538;6.728;2022-09-09T05:56:54;17.90;99.90
19085;DHT22;9675;51.538;6.728;2022-09-09T05:59:21;17.90;99.90
19085;DHT22;9675;51.538;6.728;2022-09-09T06:01:49;17.90;99.90
19085;DHT22;9675;51.538;6.728;2022-09-09T06:04:16;17.90;99.90
19085;DHT22;9675;51.538;6.728;2022-09-09T06:06:43;17.90;99.90
19085;DHT22;9675;51.538;6.728;2022-09-09T06:09:11;17.80;99.90
19085;DHT22;9675;51.538;6.728;2022-09-09T06:11:39;17.80;99.90
19085;DHT22;9675;51.538;6.728;2022-09-09T06:14:07;17.80;99.90
19085;DHT22;9675;51.538;6.728;2022-09-09T06:16:35;17.80;99.90
19085;DHT22;9675;51.538;6.728;2022-09-09T06:19:03;17.80;99.90
19085;DHT22;9675;51.538;6.728;2022-09-09T06:21:32;17.80;99.90
19085;DHT22;9675;51.538;6.728;2022-09-09T06:24:02;17.90;99.90
19085;DHT22;9675;51.538;6.728;2022-09-09T06:26:32;17.90;99.90
19085;DHT22;9675;51.538;6.728;2022-09-09T06:29:00;17.80;99.90
19085;DHT22;9675;51.538;6.728;2022-09-09T06:31:30;17.80;99.90
19085;DHT22;9675;51.538;6.728;2022-09-09T06:33:59;17.80;99.90
19085;DHT22;9675;51.538;6.728;2022-09-09T06:36:28;17.90;99.90
19085;DHT22;9675;51.538;6.728;2022-09-09T06:38:57;17.90;99.90
19085;DHT22;9675;51.538;6.728;2022-09-09T06:41:26;17.90;99.90
19085;DHT22;9675;51.538;6.728;2022-09-09T06:43:56;17.90;99.90
19085;DHT22;9675;51.538;6.728;2022-09-09T06:46:25;17.90;99.90
19085;DHT22;9675;51.538;6.728;2022-09-09T06:48:54;17.90;99.90
19085;DHT22;9675;51.538;6.728;2022-09-09T06:51:25;17.90;99.90
19085;DHT22;9675;51.538;6.728;2022-09-09T06:53:55;17.90;99.90
19085;DHT22;9675;51.538;6.728;2022-09-09T06:56:25;18.00;99.90
19085;DHT22;9675;51.538;6.728;2022-09-09T06:58:56;18.00;99.90
19085;DHT22;9675;51.538;6.728;2022-09-09T07:01:27;18.00;99.90
19085;DHT22;9675;51.538;6.728;2022-09-09T07:03:56;18.00;99.90
19085;DHT22;9675;51.538;6.728;2022-09-09T07:06:26;18.10;99.90
19085;DHT22;9675;51.538;6.728;2022-09-09T07:08:55;18.10;99.90
19085;DHT22;9675;51.538;6.728;2022-09-09T07:11:25;18.20;99.90
19085;DHT22;9675;51.538;6.728;2022-09-09T07:13:56;18.20;99.90
19085;DHT22;9675;51.538;6.728;2022-09-09T07:16:26;18.30;99.90
19085;DHT22;9675;51.538;6.728;2022-09-09T07:18:55;18.30;99.90
19085;DHT22;9675;51.538;6.728;2022-09-09T07:21:24;18.30;99.90
19085;DHT22;9675;51.538;6.728;2022-09-09T07:23:52;18.30;99.90
19085;DHT22;9675;51.538;6.728;2022-09-09T07:26:21;18.30;99.90
19085;DHT22;9675;51.538;6.728;2022-09-09T07:28:50;18.30;99.90
19085;DHT22;9675;51.538;6.728;2022-09-09T07:31:21;18.40;99.90
19085;DHT22;9675;51.538;6.728;2022-09-09T07:33:50;18.40;99.90
19085;DHT22;9675;51.538;6.728;2022-09-09T07:36:19;18.40;99.90
19085;DHT22;9675;51.538;6.728;2022-09-09T07:38:49;18.40;99.90
19085;DHT22;9675;51.538;6.728;2022-09-09T07:41:20;18.40;99.90
19085;DHT22;9675;51.538;6.728;2022-09-09T07:43:49;18.40;99.90
19085;DHT22;9675;51.538;6.728;2022-09-09T07:46:22;18.40;99.90
19085;DHT22;9675;51.538;6.728;2022-09-09T07:48:52;18.50;99.90
19085;DHT22;9675;51.538;6.728;2022-09-09T07:51:23;18.50;99.90
19085;DHT22;9675;51.538;6.728;2022-09-09T07:53:53;18.50;99.90
19085;DHT22;9675;51.538;6.728;2022-09-09T07:56:23;18.50;99.90
19085;DHT22;9675;51.538;6.728;2022-09-09T07:58:52;18.60;99.90
19085;DHT22;9675;51.538;6.728;2022-09-09T08:01:24;18.60;99.90
19085;DHT22;9675;51.538;6.728;2022-09-09T08:03:56;18.60;99.90
19085;DHT22;9675;51.538;6.728;2022-09-09T08:06:27;18.60;99.90
19085;DHT22;9675;51.538;6.728;2022-09-09T08:08:55;18.70;99.90
19085;DHT22;9675;51.538;6.728;2022-09-09T08:11:24;18.70;99.90
19085;DHT22;9675;51.538;6.728;2022-09-09T08:13:54;18.70;99.90
19085;DHT22;9675;51.538;6.728;2022-09-09T08:16:24;18.80;99.90
19085;DHT22;9675;51.538;6.728;2022-09-09T08:18:54;18.80;99.90
19085;DHT22;9675;51.538;6.728;2022-09-09T08:21:23;18.90;99.90
19085;DHT22;9675;51.538;6.728;2022-09-09T08:23:54;18.90;99.90
19085;DHT22;9675;51.538;6.728;2022-09-09T08:26:24;18.90;99.90
19085;DHT22;9675;51.538;6.728;2022-09-09T08:28:55;19.00;99.90
19085;DHT22;9675;51.538;6.728;2022-09-09T08:31:26;19.00;99.90
19085;DHT22;9675;51.538;6.728;2022-09-09T08:33:56;19.10;99.90
19085;DHT22;9675;51.538;6.728;2022-09-09T08:36:27;19.10;99.90
19085;DHT22;9675;51.538;6.728;2022-09-09T08:38:57;19.20;99.90
19085;DHT22;9675;51.538;6.728;2022-09-09T08:42:10;19.30;99.90
19085;DHT22;9675;51.538;6.728;2022-09-09T08:45:09;19.30;99.90
19085;DHT22;9675;51.538;6.728;2022-09-09T08:47:54;19.50;99.90
19085;DHT22;9675;51.538;6.728;2022-09-09T08:50:31;19.60;99.90
19085;DHT22;9675;51.538;6.728;2022-09-09T08:53:03;19.70;99.90
19085;DHT22;9675;51.538;6.728;2022-09-09T08:55:40;19.80;99.90
19085;DHT22;9675;51.538;6.728;2022-09-09T08:58:14;19.90;99.90
19085;DHT22;9675;51.538;6.728;2022-09-09T09:03:55;19.90;99.90
19085;DHT22;9675;51.538;6.728;2022-09-09T09:06:39;19.90;99.90
19085;DHT22;9675;51.538;6.728;2022-09-09T09:09:20;19.90;99.90
19085;DHT22;9675;51.538;6.728;2022-09-09T09:11:54;20.00;99.90
19085;DHT22;9675;51.538;6.728;2022-09-09T09:14:28;20.00;99.90
19085;DHT22;9675;51.538;6.728;2022-09-09T09:17:01;20.00;99.90
19085;DHT22;9675;51.538;6.728;2022-09-09T09:19:33;20.10;99.90
19085;DHT22;9675;51.538;6.728;2022-09-09T09:22:10;20.10;99.90
19085;DHT22;9675;51.538;6.728;2022-09-09T09:24:48;20.00;99.90
19085;DHT22;9675;51.538;6.728;2022-09-09T09:27:26;20.00;99.90
19085;DHT22;9675;51.538;6.728;2022-09-09T09:30:00;20.10;99.90
19085;DHT22;9675;51.538;6.728;2022-09-09T09:32:35;20.10;99.90
19085;DHT22;9675;51.538;6.728;2022-09-09T09:35:10;20.10;99.90
19085;DHT22;9675;51.538;6.728;2022-09-09T09:37:40;20.20;99.90
19085;DHT22;9675;51.538;6.728;2022-09-09T09:40:10;20.20;99.90
19085;DHT22;9675;51.538;6.728;2022-09-09T09:42:47;20.20;99.90
19085;DHT22;9675;51.538;6.728;2022-09-09T09:45:23;20.20;99.90
19085;DHT22;9675;51.538;6.728;2022-09-09T09:48:02;20.20;99.90
19085;DHT22;9675;51.538;6.728;2022-09-09T09:50:33;20.20;99.90
19085;DHT22;9675;51.538;6.728;2022-09-09T09:53:03;20.20;99.90
19085;DHT22;9675;51.538;6.728;2022-09-09T09:55:33;20.20;99.90
19085;DHT22;9675;51.538;6.728;2022-09-09T09:58:03;20.20;99.90
19085;DHT22;9675;51.538;6.728;2022-09-09T10:00:32;20.20;99.90
19085;DHT22;9675;51.538;6.728;2022-09-09T10:03:01;20.20;99.90
19085;DHT22;9675;51.538;6.728;2022-09-09T10:05:45;20.20;99.90
19085;DHT22;9675;51.538;6.728;2022-09-09T10:08:14;20.30;99.90
19085;DHT22;9675;51.538;6.728;2022-09-09T10:10:52;20.40;99.90
19085;DHT22;9675;51.538;6.728;2022-09-09T10:13:36;20.50;99.90
19085;DHT22;9675;51.538;6.728;2022-09-09T10:16:22;20.60;99.90
19085;DHT22;9675;51.538;6.728;2022-09-09T10:18:59;20.80;99.90
19085;DHT22;9675;51.538;6.728;2022-09-09T10:21:46;20.80;99.90
19085;DHT22;9675;51.538;6.728;2022-09-09T10:24:52;20.90;99.90
19085;DHT22;9675;51.538;6.728;2022-09-09T10:27:33;20.90;99.90
19085;DHT22;9675;51.538;6.728;2022-09-09T10:30:14;21.00;99.90
19085;DHT22;9675;51.538;6.728;2022-09-09T10:32:49;21.00;99.90
19085;DHT22;9675;51.538;6.728;2022-09-09T10:35:30;21.00;99.90
19085;DHT22;9675;51.538;6.728;2022-09-09T10:38:16;21.00;99.90
19085;DHT22;9675;51.538;6.728;2022-09-09T10:47:17;21.00;99.90
19085;DHT22;9675;51.538;6.728;2022-09-09T10:53:25;21.00;99.90
19085;DHT22;9675;51.538;6.728;2022-09-09T10:56:06;21.00;99.90
19085;DHT22;9675;51.538;6.728;2022-09-09T10:58:41;21.00;99.90
19085;DHT22;9675;51.538;6.728;2022-09-09T11:01:19;21.00;99.90
19085;DHT22;9675;51.538;6.728;2022-09-09T11:03:54;21.00;99.90
19085;DHT22;9675;51.538;6.728;2022-09-09T11:06:30;21.00;99.90
19085;DHT22;9675;51.538;6.728;2022-09-09T11:09:04;21.10;99.90
19085;DHT22;9675;51.538;6.728;2022-09-09T11:11:36;21.10;99.90
19085;DHT22;9675;51.538;6.728;2022-09-09T11:14:14;21.10;99.90
19085;DHT22;9675;51.538;6.728;2022-09-09T11:16:50;21.20;99.90
19085;DHT22;9675;51.538;6.728;2022-09-09T11:19:26;21.10;99.90
19085;DHT22;9675;51.538;6.728;2022-09-09T11:22:01;21.20;99.90
19085;DHT22;9675;51.538;6.728;2022-09-09T11:24:36;21.10;99.90
19085;DHT22;9675;51.538;6.728;2022-09-09T11:27:09;21.10;99.90
19085;DHT22;9675;51.538;6.728;2022-09-09T11:30:04;21.10;99.90
19085;DHT22;9675;51.538;6.728;2022-09-09T11:33:00;21.10;99.90
19085;DHT22;9675;51.538;6.728;2022-09-09T11:36:06;21.10;99.90
19085;DHT22;9675;51.538;6.728;2022-09-09T11:38:46;21.10;99.90
19085;DHT22;9675;51.538;6.728;2022-09-09T11:41:19;21.10;99.90
19085;DHT22;9675;51.538;6.728;2022-09-09T11:43:49;21.10;99.90
19085;DHT22;9675;51.538;6.728;2022-09-09T11:46:21;21.10;99.90
19085;DHT22;9675;51.538;6.728;2022-09-09T11:49:00;21.20;99.90
19085;DHT22;9675;51.538;6.728;2022-09-09T11:51:29;21.10;99.90
19085;DHT22;9675;51.538;6.728;2022-09-09T11:53:59;21.20;99.90
19085;DHT22;9675;51.538;6.728;2022-09-09T11:56:30;21.20;99.90
19085;DHT22;9675;51.538;6.728;2022-09-09T11:59:02;21.20;99.90
19085;DHT22;9675;51.538;6.728;2022-09-09T12:01:36;21.20;99.90
19085;DHT22;9675;51.538;6.728;2022-09-09T12:04:11;21.20;99.90
19085;DHT22;9675;51.538;6.728;2022-09-09T12:06:44;21.20;99.90
19085;DHT22;9675;51.538;6.728;2022-09-09T12:09:22;21.20;99.90
19085;DHT22;9675;51.538;6.728;2022-09-09T12:12:07;21.20;99.90
19085;DHT22;9675;51.538;6.728;2022-09-09T12:15:00;21.20;99.90
19085;DHT22;9675;51.538;6.728;2022-09-09T12:17:31;21.20;99.90
19085;DHT22;9675;51.538;6.728;2022-09-09T12:20:13;21.20;99.90
19085;DHT22;9675;51.538;6.728;2022-09-09T12:26:04;21.30;99.90
19085;DHT22;9675;51.538;6.728;2022-09-09T12:28:51;21.30;99.90
19085;DHT22;9675;51.538;6.728;2022-09-09T12:31:30;21.30;99.90
19085;DHT22;9675;51.538;6.728;2022-09-09T12:34:11;21.30;99.90
19085;DHT22;9675;51.538;6.728;2022-09-09T12:36:44;21.30;99.90
19085;DHT22;9675;51.538;6.728;2022-09-09T12:39:21;21.30;99.90
19085;DHT22;9675;51.538;6.728;2022-09-09T12:41:54;21.30;99.90
19085;DHT22;9675;51.538;6.728;2022-09-09T12:44:24;21.30;99.90
19085;DHT22;9675;51.538;6.728;2022-09-09T12:46:54;21.20;99.90
19085;DHT22;9675;51.538;6.728;2022-09-09T12:49:28;21.10;99.90
19085;DHT22;9675;51.538;6.728;2022-09-09T12:52:02;21.00;99.90
19085;DHT22;9675;51.538;6.728;2022-09-09T12:54:32;21.00;99.90
19085;DHT22;9675;51.538;6.728;2022-09-09T12:57:02;21.00;99.90
19085;DHT22;9675;51.538;6.728;2022-09-09T12:59:37;20.90;99.90
19085;DHT22;9675;51.538;6.728;2022-09-09T13:02:19;21.00;99.90
19085;DHT22;9675;51.538;6.728;2022-09-09T13:04:49;21.00;99.90
19085;DHT22;9675;51.538;6.728;2022-09-09T13:07:17;21.10;99.90
19085;DHT22;9675;51.538;6.728;2022-09-09T13:09:48;21.10;99.90
19085;DHT22;9675;51.538;6.728;2022-09-09T13:12:18;21.10;99.90
19085;DHT22;9675;51.538;6.728;2022-09-09T13:14:51;21.10;99.90
19085;DHT22;9675;51.538;6.728;2022-09-09T13:17:23;21.10;99.90
19085;DHT22;9675;51.538;6.728;2022-09-09T13:19:54;21.20;99.90
19085;DHT22;9675;51.538;6.728;2022-09-09T13:22:29;21.20;99.90
19085;DHT22;9675;51.538;6.728;2022-09-09T13:25:03;21.20;99.90
19085;DHT22;9675;51.538;6.728;2022-09-09T13:27:34;21.20;99.90
19085;DHT22;9675;51.538;6.728;2022-09-09T13:30:21;21.20;99.90
19085;DHT22;9675;51.538;6.728;2022-09-09T13:33:01;21.20;99.90
19085;DHT22;9675;51.538;6.728;2022-09-09T13:35:30;21.30;99.90
19085;DHT22;9675;51.538;6.728;2022-09-09T13:37:58;21.50;99.90
19085;DHT22;9675;51.538;6.728;2022-09-09T13:40:26;21.50;99.90
19085;DHT22;9675;51.538;6.728;2022-09-09T13:42:56;21.60;99.90
19085;DHT22;9675;51.538;6.728;2022-09-09T13:45:26;21.60;99.90
19085;DHT22;9675;51.538;6.728;2022-09-09T13:47:54;21.70;99.90
19085;DHT22;9675;51.538;6.728;2022-09-09T13:50:24;21.70;99.90
19085;DHT22;9675;51.538;6.728;2022-09-09T13:52:53;21.80;99.90
19085;DHT22;9675;51.538;6.728;2022-09-09T13:55:24;21.80;99.90
19085;DHT22;9675;51.538;6.728;2022-09-09T13:57:54;21.80;99.90
19085;DHT22;9675;51.538;6.728;2022-09-09T14:00:23;21.80;99.90
19085;DHT22;9675;51.538;6.728;2022-09-09T14:02:53;21.90;99.90
19085;DHT22;9675;51.538;6.728;2022-09-09T14:05:20;21.80;99.90
19085;DHT22;9675;51.538;6.728;2022-09-09T14:07:49;21.90;99.90
19085;DHT22;9675;51.538;6.728;2022-09-09T14:10:17;21.80;99.90
19085;DHT22;9675;51.538;6.728;2022-09-09T14:12:44;21.90;99.90
19085;DHT22;9675;51.538;6.728;2022-09-09T14:15:12;21.90;99.90
19085;DHT22;9675;51.538;6.728;2022-09-09T14:17:41;21.90;99.90
19085;DHT22;9675;51.538;6.728;2022-09-09T14:20:09;21.90;99.90
19085;DHT22;9675;51.538;6.728;2022-09-09T14:22:41;22.00;99.90
19085;DHT22;9675;51.538;6.728;2022-09-09T14:25:09;21.90;99.90
19085;DHT22;9675;51.538;6.728;2022-09-09T14:27:36;21.90;99.90
19085;DHT22;9675;51.538;6.728;2022-09-09T14:30:05;21.90;99.90
19085;DHT22;9675;51.538;6.728;2022-09-09T14:32:33;21.90;99.90
19085;DHT22;9675;51.538;6.728;2022-09-09T14:35:02;21.90;99.90
19085;DHT22;9675;51.538;6.728;2022-09-09T14:37:29;21.90;99.90
19085;DHT22;9675;51.538;6.728;2022-09-09T14:39:57;21.90;99.90
19085;DHT22;9675;51.538;6.728;2022-09-09T14:42:24;21.90;99.90
19085;DHT22;9675;51.538;6.728;2022-09-09T14:44:52;21.80;99.90
19085;DHT22;9675;51.538;6.728;2022-09-09T14:47:19;21.70;99.90
19085;DHT22;9675;51.538;6.728;2022-09-09T14:49:46;21.70;99.90
19085;DHT22;9675;51.538;6.728;2022-09-09T14:52:16;21.60;99.90
19085;DHT22;9675;51.538;6.728;2022-09-09T14:54:43;21.60;99.90
19085;DHT22;9675;51.538;6.728;2022-09-09T14:57:10;21.60;99.90
19085;DHT22;9675;51.538;6.728;2022-09-09T14:59:37;21.60;99.90
19085;DHT22;9675;51.538;6.728;2022-09-09T15:02:05;21.50;99.90
19085;DHT22;9675;51.538;6.728;2022-09-09T15:04:32;21.50;99.90
19085;DHT22;9675;51.538;6.728;2022-09-09T15:06:59;21.40;99.90
19085;DHT22;9675;51.538;6.728;2022-09-09T15:09:27;21.40;99.90
19085;DHT22;9675;51.538;6.728;2022-09-09T15:11:54;21.30;99.90
19085;DHT22;9675;51.538;6.728;2022-09-09T15:14:21;21.20;99.90
19085;DHT22;9675;51.538;6.728;2022-09-09T15:16:48;21.20;99.90
19085;DHT22;9675;51.538;6.728;2022-09-09T15:19:17;21.20;99.90
19085;DHT22;9675;51.538;6.728;2022-09-09T15:21:44;21.10;99.90
19085;DHT22;9675;51.538;6.728;2022-09-09T15:24:11;21.10;99.90
19085;DHT22;9675;51.538;6.728;2022-09-09T15:26:40;21.00;99.90
19085;DHT22;9675;51.538;6.728;2022-09-09T15:29:08;21.00;99.90
19085;DHT22;9675;51.538;6.728;2022-09-09T15:31:35;21.00;99.90
19085;DHT22;9675;51.538;6.728;2022-09-09T15:34:04;20.90;99.90
19085;DHT22;9675;51.538;6.728;2022-09-09T15:36:35;20.80;99.90
19085;DHT22;9675;51.538;6.728;2022-09-09T15:39:05;20.80;99.90
19085;DHT22;9675;51.538;6.728;2022-09-09T15:41:33;20.70;99.90
19085;DHT22;9675;51.538;6.728;2022-09-09T15:44:02;20.60;99.90
19085;DHT22;9675;51.538;6.728;2022-09-09T15:46:32;20.60;99.90
19085;DHT22;9675;51.538;6.728;2022-09-09T15:49:09;20.50;99.90
19085;DHT22;9675;51.538;6.728;2022-09-09T15:51:39;20.50;99.90
19085;DHT22;9675;51.538;6.728;2022-09-09T15:54:08;20.50;99.90
19085;DHT22;9675;51.538;6.728;2022-09-09T15:56:37;20.40;99.90
19085;DHT22;9675;51.538;6.728;2022-09-09T15:59:06;20.40;99.90
19085;DHT22;9675;51.538;6.728;2022-09-09T16:01:34;20.40;99.90
19085;DHT22;9675;51.538;6.728;2022-09-09T16:04:02;20.40;99.90
19085;DHT22;9675;51.538;6.728;2022-09-09T16:06:29;20.40;99.90
19085;DHT22;9675;51.538;6.728;2022-09-09T16:08:58;20.40;99.90
19085;DHT22;9675;51.538;6.728;2022-09-09T16:11:28;20.40;99.90
19085;DHT22;9675;51.538;6.728;2022-09-09T16:13:57;20.40;99.90
19085;DHT22;9675;51.538;6.728;2022-09-09T16:16:29;20.40;99.90
19085;DHT22;9675;51.538;6.728;2022-09-09T16:18:58;20.40;99.90
19085;DHT22;9675;51.538;6.728;2022-09-09T16:21:28;20.30;99.90
19085;DHT22;9675;51.538;6.728;2022-09-09T16:23:58;20.30;99.90
19085;DHT22;9675;51.538;6.728;2022-09-09T16:26:27;20.30;99.90
19085;DHT22;9675;51.538;6.728;2022-09-09T16:28:55;20.30;99.90
19085;DHT22;9675;51.538;6.728;2022-09-09T16:31:26;20.30;99.90
19085;DHT22;9675;51.538;6.728;2022-09-09T16:33:54;20.30;99.90